Time;durP1;ratioP1;P1;durP2;ratioP2;P2;SDS_P1;SDS_P2;PMS_P1;PMS_P2;Temp;Humidity;BMP_temperature;BMP_pressure;BME280_temperature;BME280_humidity;BME280_pressure;Samples;Min_cycle;Max_cycle;Signal;HPM_P1;HPM_P2
2023/03/27 00:01:11;;;;;;;0.20;0.10;;;12.30;38.30;;;;;;6241000;22;20392;-81
2023/03/27 00:03:38;;;;;;;0.10;0.10;;;12.20;38.40;;;;;;6241967;23;20369;-81
2023/03/27 00:06:15;;;;;;;0.70;0.10;;;12.20;38.40;;;;;;6241385;22;20372;-81
2023/03/27 00:08:47;;;;;;;1.20;0.10;;;12.10;38.80;;;;;;6216857;23;20369;-80
2023/03/27 00:11:15;;;;;;;0.30;0.10;;;12.10;38.70;;;;;;6241240;22;20830;-81
2023/03/27 00:13:43;;;;;;;0.20;0.10;;;12.10;38.70;;;;;;6241704;23;20427;-81
2023/03/27 00:16:22;;;;;;;0.77;0.10;;;12.10;38.70;;;;;;6242803;22;20826;-80
2023/03/27 00:18:50;;;;;;;0.90;0.10;;;12.10;38.20;;;;;;6241629;23;20377;-80
2023/03/27 00:21:17;;;;;;;0.73;0.10;;;12.00;38.50;;;;;;6240494;22;20777;-80
2023/03/27 00:23:44;;;;;;;0.17;0.10;;;12.00;38.10;;;;;;6241463;23;20749;-81
2023/03/27 00:26:12;;;;;;;0.43;0.10;;;12.10;38.00;;;;;;6241110;22;20423;-80
2023/03/27 00:28:40;;;;;;;0.20;0.00;;;12.10;37.70;;;;;;6243534;22;20495;-80
2023/03/27 00:31:11;;;;;;;0.40;0.10;;;12.20;37.40;;;;;;6240284;22;20376;-80
2023/03/27 00:33:39;;;;;;;0.20;0.00;;;12.20;37.20;;;;;;6241902;23;20746;-80
2023/03/27 00:36:07;;;;;;;0.55;0.10;;;12.20;37.50;;;;;;6240159;22;20392;-80
2023/03/27 00:38:34;;;;;;;0.80;0.00;;;12.20;37.40;;;;;;6241629;23;20373;-80
2023/03/27 00:41:01;;;;;;;0.20;0.00;;;12.20;37.50;;;;;;6240040;22;20404;-79
2023/03/27 00:43:32;;;;;;;0.20;0.00;;;12.20;37.80;;;;;;6242588;22;20375;-80
2023/03/27 00:46:26;;;;;;;0.20;0.00;;;12.10;38.20;;;;;;6241235;23;20369;-80
2023/03/27 00:48:56;;;;;;;0.33;0.10;;;12.00;38.40;;;;;;6240270;22;20368;-81
2023/03/27 00:51:25;;;;;;;0.10;0.00;;;12.10;37.70;;;;;;6242894;22;20435;-80
2023/03/27 00:53:54;;;;;;;0.70;0.00;;;12.00;37.60;;;;;;6240586;22;20376;-81
2023/03/27 00:56:22;;;;;;;1.10;0.10;;;12.00;37.50;;;;;;6242228;22;20376;-81
2023/03/27 00:58:57;;;;;;;0.90;0.00;;;12.10;37.20;;;;;;6240141;22;20377;-81
2023/03/27 01:01:26;;;;;;;0.10;0.10;;;12.20;37.00;;;;;;6240885;23;20417;-80
2023/03/27 01:03:54;;;;;;;0.20;0.00;;;12.30;36.00;;;;;;6207988;22;20390;-79
2023/03/27 01:06:22;;;;;;;0.03;0.00;;;12.20;35.40;;;;;;6211030;23;20450;-80
2023/03/27 01:08:49;;;;;;;0.13;0.00;;;12.30;36.10;;;;;;6208866;22;20445;-80
2023/03/27 01:11:27;;;;;;;0.20;0.08;;;12.30;36.30;;;;;;6211010;23;20378;-80
2023/03/27 01:14:27;;;;;;;0.70;0.00;;;12.30;36.70;;;;;;6210449;22;20386;-80
2023/03/27 01:17:12;;;;;;;0.17;0.00;;;12.20;37.20;;;;;;6210642;22;20437;-80
2023/03/27 01:20:13;;;;;;;0.57;0.10;;;12.10;37.80;;;;;;6209638;22;20400;-80
2023/03/27 01:23:07;;;;;;;0.40;0.10;;;12.00;37.90;;;;;;6209693;22;20410;-79
2023/03/27 01:25:40;;;;;;;0.20;0.10;;;11.90;38.10;;;;;;6155807;22;20462;-79
2023/03/27 01:28:35;;;;;;;0.30;0.00;;;11.90;38.30;;;;;;6212601;22;20748;-81
2023/03/27 01:31:28;;;;;;;0.10;0.00;;;11.90;38.40;;;;;;6210438;22;20382;-80
2023/03/27 01:34:32;;;;;;;0.10;0.00;;;12.00;37.90;;;;;;6155287;22;20371;-80
2023/03/27 01:37:23;;;;;;;0.90;0.10;;;12.00;38.10;;;;;;6209254;22;20454;-80
2023/03/27 01:39:56;;;;;;;0.30;0.10;;;11.90;38.20;;;;;;6209454;22;20375;-81
2023/03/27 01:42:34;;;;;;;0.20;0.00;;;11.90;38.30;;;;;;6210491;22;20375;-81
2023/03/27 01:45:43;;;;;;;0.10;0.00;;;11.80;38.40;;;;;;6209697;22;20768;-81
2023/03/27 01:48:20;;;;;;;0.40;0.00;;;11.90;37.70;;;;;;6209897;23;20374;-81
2023/03/27 01:50:55;;;;;;;0.68;0.00;;;11.90;37.80;;;;;;6209076;22;20410;-80
2023/03/27 01:53:31;;;;;;;0.00;0.00;;;11.90;37.90;;;;;;6211868;22;20371;-79
2023/03/27 01:56:12;;;;;;;0.10;0.00;;;11.90;37.90;;;;;;6210027;22;20752;-80
2023/03/27 01:58:46;;;;;;;0.30;0.08;;;11.90;37.80;;;;;;6210748;23;20436;-80
2023/03/27 02:01:18;;;;;;;0.30;0.10;;;11.80;38.10;;;;;;6210104;22;20732;-80
2023/03/27 02:03:50;;;;;;;0.10;0.00;;;11.70;37.20;;;;;;6210378;22;20371;-81
2023/03/27 02:06:27;;;;;;;0.35;0.00;;;11.60;37.00;;;;;;6210117;23;20405;-80
2023/03/27 02:09:19;;;;;;;0.80;0.10;;;11.60;37.20;;;;;;6209800;22;20371;-80
2023/03/27 02:11:51;;;;;;;0.40;0.00;;;11.50;37.70;;;;;;6210437;23;20421;-80
2023/03/27 02:14:24;;;;;;;0.75;0.10;;;11.60;37.50;;;;;;6209284;22;20402;-80
2023/03/27 02:16:55;;;;;;;0.35;0.10;;;11.60;37.80;;;;;;6210324;23;20379;-79
2023/03/27 02:19:32;;;;;;;0.20;0.10;;;11.50;38.40;;;;;;6210101;22;20497;-80
2023/03/27 02:21:59;;;;;;;0.10;0.00;;;11.40;38.00;;;;;;6210236;22;20429;-79
2023/03/27 02:24:26;;;;;;;0.10;0.00;;;11.40;38.10;;;;;;6212128;23;20371;-80
2023/03/27 02:27:03;;;;;;;0.43;0.00;;;11.40;38.30;;;;;;6212652;23;20697;-80
2023/03/27 02:29:42;;;;;;;0.27;0.10;;;11.40;38.60;;;;;;6212854;22;20404;-79
2023/03/27 02:32:27;;;;;;;0.40;0.10;;;11.10;39.40;;;;;;6211322;22;20453;-79
2023/03/27 02:35:14;;;;;;;0.50;0.10;;;10.80;40.80;;;;;;6212599;23;20366;-80
2023/03/27 02:37:55;;;;;;;0.30;0.10;;;10.60;41.60;;;;;;6211866;22;20693;-80
2023/03/27 02:40:25;;;;;;;0.15;0.10;;;10.30;40.40;;;;;;6213035;22;20832;-80
2023/03/27 02:43:15;;;;;;;0.17;0.00;;;10.40;39.50;;;;;;6212238;22;20433;-79
2023/03/27 02:45:49;;;;;;;0.60;0.00;;;10.70;38.00;;;;;;6212754;22;20833;-82
2023/03/27 02:48:28;;;;;;;0.00;0.00;;;11.30;36.40;;;;;;6212491;23;20424;-81
2023/03/27 02:51:11;;;;;;;0.00;0.00;;;11.70;36.00;;;;;;6211784;22;20417;-81
2023/03/27 02:53:58;;;;;;;0.10;0.00;;;11.90;36.00;;;;;;6210856;22;20764;-80
2023/03/27 02:56:30;;;;;;;0.00;0.00;;;12.00;35.70;;;;;;6211767;23;20426;-82
2023/03/27 02:59:09;;;;;;;0.10;0.00;;;12.00;36.20;;;;;;6211293;22;20688;-80
2023/03/27 03:01:37;;;;;;;0.00;0.00;;;12.00;36.10;;;;;;6210900;22;20383;-77
2023/03/27 03:04:11;;;;;;;0.00;0.00;;;12.00;36.00;;;;;;6211308;23;20391;-78
2023/03/27 03:06:40;;;;;;;0.43;0.00;;;12.00;35.90;;;;;;6210409;22;20409;-79
2023/03/27 03:09:08;;;;;;;0.27;0.00;;;12.00;36.10;;;;;;6212068;22;20728;-80
2023/03/27 03:11:43;;;;;;;0.00;0.00;;;12.00;35.90;;;;;;6210778;22;20398;-78
2023/03/27 03:14:10;;;;;;;0.10;0.00;;;12.00;35.50;;;;;;6211256;22;20405;-78
2023/03/27 03:16:37;;;;;;;0.60;0.00;;;12.00;35.70;;;;;;6185956;22;20768;-79
2023/03/27 03:19:04;;;;;;;0.00;0.00;;;12.20;34.80;;;;;;6211188;23;20906;-80
2023/03/27 03:21:31;;;;;;;0.00;0.00;;;12.40;34.30;;;;;;6211567;23;20752;-80
2023/03/27 03:23:58;;;;;;;0.05;0.00;;;12.40;34.30;;;;;;6210126;22;20374;-79
2023/03/27 03:26:26;;;;;;;0.10;0.00;;;12.60;33.10;;;;;;6211638;23;20910;-77
2023/03/27 03:28:53;;;;;;;0.88;0.00;;;12.70;33.10;;;;;;6209770;22;20385;-79
2023/03/27 03:31:42;;;;;;;0.32;0.00;;;12.90;32.90;;;;;;6211248;23;20704;-79
2023/03/27 03:34:15;;;;;;;0.05;0.00;;;13.10;32.40;;;;;;6210563;22;20432;-81
2023/03/27 03:36:43;;;;;;;0.10;0.00;;;13.10;32.70;;;;;;6210821;23;20379;-81
2023/03/27 03:39:14;;;;;;;0.00;0.00;;;13.00;33.50;;;;;;6211542;22;20697;-80
2023/03/27 03:41:41;;;;;;;0.00;0.00;;;12.90;32.70;;;;;;6211617;23;20383;-80
2023/03/27 03:44:09;;;;;;;0.17;0.03;;;13.00;32.80;;;;;;6212884;22;20725;-80
2023/03/27 03:46:36;;;;;;;0.63;0.10;;;12.90;34.50;;;;;;6211703;23;20375;-80
2023/03/27 03:49:03;;;;;;;0.13;0.00;;;12.60;34.60;;;;;;6211065;22;20375;-80
2023/03/27 03:51:35;;;;;;;0.70;0.10;;;12.50;34.50;;;;;;6212284;22;20425;-80
2023/03/27 03:54:05;;;;;;;0.15;0.10;;;12.20;34.70;;;;;;6211150;22;20409;-80
2023/03/27 03:56:33;;;;;;;0.20;0.10;;;12.10;35.60;;;;;;6211638;23;20379;-81
2023/03/27 03:59:00;;;;;;;0.20;0.10;;;11.90;35.60;;;;;;6211212;22;20378;-81
2023/03/27 04:01:27;;;;;;;0.52;0.10;;;11.80;36.00;;;;;;6211528;23;20433;-81
2023/03/27 04:03:55;;;;;;;0.10;0.00;;;11.60;36.10;;;;;;6210946;22;20375;-80
2023/03/27 04:06:24;;;;;;;0.40;0.10;;;11.60;35.50;;;;;;6211612;23;20511;-81
2023/03/27 04:08:52;;;;;;;0.35;0.10;;;11.50;35.80;;;;;;6210159;22;20405;-81
2023/03/27 04:11:19;;;;;;;0.20;0.07;;;11.50;36.00;;;;;;6211223;23;20377;-81
2023/03/27 04:13:46;;;;;;;0.20;0.10;;;11.40;37.80;;;;;;6211265;22;20394;-82
2023/03/27 04:16:14;;;;;;;0.40;0.10;;;11.30;37.00;;;;;;6210324;22;20454;-81
2023/03/27 04:18:41;;;;;;;0.30;0.20;;;11.20;37.40;;;;;;6211469;23;20374;-81
2023/03/27 04:21:14;;;;;;;0.20;0.00;;;11.00;37.80;;;;;;6211812;22;20394;-80
2023/03/27 04:23:42;;;;;;;0.20;0.10;;;10.90;37.60;;;;;;6211278;23;20774;-81
2023/03/27 04:26:10;;;;;;;0.10;0.00;;;10.90;38.20;;;;;;6210323;22;20375;-81
2023/03/27 04:28:39;;;;;;;0.60;0.10;;;10.70;38.60;;;;;;6211260;23;20836;-80
2023/03/27 04:31:09;;;;;;;0.30;0.10;;;10.60;39.10;;;;;;6210552;22;20370;-81
2023/03/27 04:33:38;;;;;;;0.20;0.20;;;10.50;39.50;;;;;;6211209;23;20435;-80
2023/03/27 04:36:06;;;;;;;0.60;0.20;;;10.40;39.70;;;;;;6210276;22;20721;-80
2023/03/27 04:38:35;;;;;;;1.23;0.10;;;10.40;39.80;;;;;;6210940;23;20371;-80
2023/03/27 04:41:04;;;;;;;0.50;0.10;;;10.20;41.60;;;;;;6210349;22;20449;-81
2023/03/27 04:43:30;;;;;;;0.55;0.10;;;9.90;41.90;;;;;;6210835;23;20374;-80
2023/03/27 04:45:57;;;;;;;0.60;0.10;;;10.10;40.50;;;;;;6209286;22;20517;-80
2023/03/27 04:48:25;;;;;;;0.30;0.20;;;10.30;40.70;;;;;;6211391;23;20458;-80
2023/03/27 04:50:52;;;;;;;0.60;0.20;;;10.20;43.20;;;;;;6210015;22;20448;-81
2023/03/27 04:53:20;;;;;;;0.43;0.10;;;10.00;42.70;;;;;;6210203;23;20373;-82
2023/03/27 04:55:49;;;;;;;1.80;0.00;;;9.90;40.80;;;;;;6211097;23;20394;-81
2023/03/27 04:58:17;;;;;;;2.05;0.10;;;10.40;39.90;;;;;;6210127;22;20382;-81
2023/03/27 05:00:49;;;;;;;1.98;0.30;;;11.00;40.00;;;;;;6210681;23;20410;-80
2023/03/27 05:03:17;;;;;;;1.50;0.00;;;11.50;38.10;;;;;;6209629;22;20700;-81
2023/03/27 05:05:48;;;;;;;1.07;0.07;;;11.90;36.90;;;;;;6211269;23;20768;-80
2023/03/27 05:08:16;;;;;;;0.68;0.00;;;12.20;36.60;;;;;;6209609;22;20379;-79
2023/03/27 05:10:45;;;;;;;1.33;0.10;;;12.50;36.00;;;;;;6212153;22;20748;-82
2023/03/27 05:13:12;;;;;;;1.20;0.00;;;12.60;35.60;;;;;;6209946;22;20367;-81
2023/03/27 05:15:39;;;;;;;0.50;0.00;;;12.80;35.60;;;;;;6210812;23;20450;-79
2023/03/27 05:18:07;;;;;;;0.85;0.10;;;12.90;35.50;;;;;;6209810;22;20383;-80
2023/03/27 05:20:35;;;;;;;1.40;0.00;;;12.90;35.50;;;;;;6211144;23;20461;-81
2023/03/27 05:23:02;;;;;;;0.43;0.10;;;12.90;35.60;;;;;;6210125;22;20375;-79
2023/03/27 05:25:30;;;;;;;1.65;0.10;;;13.00;35.80;;;;;;6210852;23;20371;-80
2023/03/27 05:27:59;;;;;;;0.30;0.05;;;13.00;35.90;;;;;;6209835;22;20409;-80
2023/03/27 05:30:27;;;;;;;0.65;0.00;;;13.00;35.90;;;;;;6211808;22;20379;-80
2023/03/27 05:32:57;;;;;;;0.10;0.00;;;13.00;36.20;;;;;;6210670;22;20379;-80
2023/03/27 05:35:26;;;;;;;1.60;0.00;;;12.90;36.20;;;;;;6209769;22;20440;-80
2023/03/27 05:37:56;;;;;;;0.90;0.00;;;13.00;36.00;;;;;;6212368;22;20389;-79
2023/03/27 05:40:24;;;;;;;1.02;0.00;;;13.00;36.10;;;;;;6210071;22;20377;-80
2023/03/27 05:42:52;;;;;;;0.00;0.00;;;13.00;36.10;;;;;;6212120;22;20386;-79
2023/03/27 05:45:21;;;;;;;0.88;0.00;;;13.10;36.40;;;;;;6210709;22;20374;-80
2023/03/27 05:47:50;;;;;;;2.20;0.00;;;13.10;36.40;;;;;;6212645;22;20450;-79
2023/03/27 05:50:20;;;;;;;0.00;0.00;;;13.10;36.30;;;;;;6211046;22;20381;-78
2023/03/27 05:52:57;;;;;;;0.35;0.00;;;13.10;36.30;;;;;;6210740;23;20378;-78
2023/03/27 05:55:25;;;;;;;1.40;0.00;;;13.10;36.50;;;;;;6208949;22;20362;-78
2023/03/27 05:57:54;;;;;;;1.00;0.00;;;13.10;36.50;;;;;;6212878;22;20374;-78
2023/03/27 06:00:24;;;;;;;0.70;0.00;;;13.10;36.20;;;;;;6211173;22;20378;-78
2023/03/27 06:02:56;;;;;;;0.20;0.00;;;13.20;36.20;;;;;;6212187;23;20372;-80
2023/03/27 06:05:26;;;;;;;0.40;0.00;;;13.20;36.70;;;;;;6211657;22;20662;-78
2023/03/27 06:07:57;;;;;;;0.10;0.00;;;13.20;36.20;;;;;;6211856;23;20386;-78
2023/03/27 06:10:26;;;;;;;0.95;0.00;;;13.30;36.10;;;;;;6187007;22;20389;-78
2023/03/27 06:13:08;;;;;;;0.22;0.00;;;13.30;36.50;;;;;;6211979;23;20382;-78
2023/03/27 06:15:38;;;;;;;0.40;0.00;;;13.30;36.40;;;;;;6211362;22;20429;-78
2023/03/27 06:18:05;;;;;;;0.50;0.00;;;13.40;36.60;;;;;;6212253;23;20386;-78
2023/03/27 06:20:34;;;;;;;0.65;0.00;;;13.50;35.90;;;;;;6210542;22;20371;-78
2023/03/27 06:23:02;;;;;;;1.30;0.00;;;13.50;36.20;;;;;;6212323;23;20388;-78
2023/03/27 06:25:32;;;;;;;0.40;0.00;;;13.50;36.40;;;;;;6211170;22;20380;-78
2023/03/27 06:28:00;;;;;;;0.00;0.00;;;13.60;36.40;;;;;;6212665;23;20379;-78
2023/03/27 06:30:28;;;;;;;0.70;0.00;;;13.60;35.70;;;;;;6210620;22;20378;-78
2023/03/27 06:32:57;;;;;;;0.20;0.00;;;13.70;36.50;;;;;;6213909;22;20760;-78
2023/03/27 06:35:26;;;;;;;0.70;0.00;;;13.70;36.30;;;;;;6211696;22;20375;-78
2023/03/27 06:37:57;;;;;;;0.30;0.00;;;13.80;35.70;;;;;;6212327;23;20410;-78
2023/03/27 06:40:26;;;;;;;0.70;0.20;;;13.80;35.80;;;;;;6210548;22;20425;-78
2023/03/27 06:42:59;;;;;;;0.22;0.00;;;13.80;35.60;;;;;;6211911;23;20467;-78
2023/03/27 06:45:32;;;;;;;0.40;0.10;;;13.70;35.60;;;;;;6210820;22;20429;-77
2023/03/27 06:48:01;;;;;;;0.30;0.20;;;13.70;35.30;;;;;;6212158;23;20375;-78
2023/03/27 06:50:46;;;;;;;0.03;0.00;;;13.70;35.90;;;;;;6211957;22;20839;-81
2023/03/27 06:53:15;;;;;;;0.80;0.10;;;13.80;36.90;;;;;;6212208;23;20863;-80
2023/03/27 06:55:54;;;;;;;1.90;0.00;;;13.80;36.50;;;;;;6211536;22;20425;-78
2023/03/27 06:58:22;;;;;;;0.25;0.00;;;13.70;36.40;;;;;;6211724;22;20791;-77
2023/03/27 07:00:49;;;;;;;0.80;0.05;;;13.70;36.40;;;;;;6211208;22;20393;-77
2023/03/27 07:03:18;;;;;;;0.98;0.10;;;13.60;36.40;;;;;;6211977;23;20366;-77
2023/03/27 07:05:45;;;;;;;0.00;0.00;;;13.60;36.60;;;;;;6210630;22;20378;-77
2023/03/27 07:08:14;;;;;;;0.60;0.00;;;13.60;37.00;;;;;;6211976;23;20674;-77
2023/03/27 07:10:53;;;;;;;0.22;0.00;;;13.60;37.00;;;;;;6210842;22;20417;-78
2023/03/27 07:13:23;;;;;;;0.80;0.10;;;13.60;36.70;;;;;;6212726;23;20461;-78
2023/03/27 07:15:50;;;;;;;7.30;0.30;;;13.70;36.50;;;;;;6210174;22;21910;-77
2023/03/27 07:18:17;;;;;;;0.40;0.00;;;13.80;36.70;;;;;;6212159;23;20375;-78
2023/03/27 07:20:46;;;;;;;0.08;0.00;;;13.80;36.40;;;;;;6208334;22;20379;-77
2023/03/27 07:23:13;;;;;;;0.50;0.03;;;13.90;35.80;;;;;;6213343;22;20433;-78
2023/03/27 07:25:39;;;;;;;0.15;0.00;;;14.00;35.50;;;;;;6210312;22;20386;-78
2023/03/27 07:28:09;;;;;;;0.50;0.10;;;14.10;35.10;;;;;;6211796;23;20374;-77
2023/03/27 07:30:37;;;;;;;0.70;0.00;;;14.20;35.50;;;;;;6210156;22;20748;-78
2023/03/27 07:33:06;;;;;;;0.93;0.08;;;14.20;35.40;;;;;;6211374;23;20417;-78
2023/03/27 07:35:33;;;;;;;1.27;0.00;;;14.30;35.30;;;;;;6210800;22;20375;-78
2023/03/27 07:38:01;;;;;;;0.10;0.00;;;14.40;34.90;;;;;;6211869;23;20382;-78
2023/03/27 07:40:28;;;;;;;0.60;0.00;;;14.50;35.10;;;;;;6214663;22;20413;-78
2023/03/27 07:43:06;;;;;;;0.80;0.00;;;14.60;34.50;;;;;;6212012;22;20367;-78
2023/03/27 07:45:34;;;;;;;0.10;0.00;;;14.70;34.20;;;;;;6216074;22;20374;-77
2023/03/27 07:48:09;;;;;;;1.00;0.10;;;14.90;32.50;;;;;;6211493;22;20405;-78
2023/03/27 07:50:36;;;;;;;1.05;0.00;;;15.00;31.40;;;;;;6210572;23;20382;-78
2023/03/27 07:53:05;;;;;;;1.73;0.00;;;15.00;31.90;;;;;;6210205;22;20370;-79
2023/03/27 07:55:34;;;;;;;0.35;0.00;;;15.10;31.10;;;;;;6210802;23;20380;-79
2023/03/27 07:58:01;;;;;;;3.05;0.40;;;15.20;32.00;;;;;;6210733;22;20458;-79
2023/03/27 08:00:31;;;;;;;0.77;0.17;;;15.20;30.20;;;;;;6210779;23;20674;-78
2023/03/27 08:03:09;;;;;;;6.00;0.20;;;15.20;31.40;;;;;;6211046;22;20405;-78
2023/03/27 08:05:37;;;;;;;5.30;0.10;;;15.30;30.40;;;;;;6214917;23;20371;-79
2023/03/27 08:08:04;;;;;;;1.25;0.00;;;15.20;30.10;;;;;;6214360;22;20379;-79
2023/03/27 08:10:31;;;;;;;1.90;0.00;;;15.20;30.40;;;;;;6213854;22;20407;-78
2023/03/27 08:12:58;;;;;;;3.65;0.15;;;15.20;30.30;;;;;;6209764;22;20374;-78
2023/03/27 08:15:25;;;;;;;2.20;0.15;;;15.20;31.40;;;;;;6211867;23;20402;-78
2023/03/27 08:17:53;;;;;;;2.65;0.10;;;15.30;31.20;;;;;;6211966;22;20417;-79
2023/03/27 08:20:22;;;;;;;2.55;0.00;;;15.20;31.80;;;;;;6215138;23;20690;-78
2023/03/27 08:22:52;;;;;;;0.82;0.00;;;15.20;32.00;;;;;;6215926;22;20409;-79
2023/03/27 08:25:21;;;;;;;0.40;0.00;;;15.20;32.30;;;;;;6214661;23;20457;-78
2023/03/27 08:27:52;;;;;;;0.30;0.00;;;15.20;32.10;;;;;;6216160;22;20789;-78
2023/03/27 08:30:20;;;;;;;0.90;0.00;;;15.20;32.50;;;;;;6214738;23;20631;-78
2023/03/27 08:32:47;;;;;;;0.10;0.00;;;15.30;32.90;;;;;;6188724;22;20389;-78
2023/03/27 08:35:15;;;;;;;0.70;0.00;;;15.30;32.20;;;;;;6215636;23;20849;-78
2023/03/27 08:37:42;;;;;;;0.35;0.00;;;15.30;32.70;;;;;;6216026;23;20928;-78
2023/03/27 08:40:28;;;;;;;0.30;0.00;;;15.20;33.30;;;;;;6214115;22;20370;-78
2023/03/27 08:43:05;;;;;;;1.10;0.20;;;15.20;33.70;;;;;;6214334;22;20410;-79
2023/03/27 08:45:41;;;;;;;0.50;0.10;;;15.10;34.30;;;;;;6213156;23;20984;-78
2023/03/27 08:48:17;;;;;;;0.30;0.00;;;15.10;33.60;;;;;;6211265;22;20424;-79
2023/03/27 08:50:58;;;;;;;1.73;0.00;;;15.00;34.20;;;;;;6209799;22;20674;-79
2023/03/27 08:53:39;;;;;;;0.10;0.00;;;14.90;35.10;;;;;;6212479;22;20450;-78
2023/03/27 08:56:12;;;;;;;0.70;0.20;;;15.00;34.60;;;;;;6210116;22;20378;-77
2023/03/27 08:58:41;;;;;;;2.80;0.10;;;15.10;34.40;;;;;;6209965;23;20382;-78
2023/03/27 09:01:26;;;;;;;1.60;0.00;;;14.90;35.20;;;;;;6211906;22;20367;-78
2023/03/27 09:04:03;;;;;;;1.65;0.00;;;15.00;34.50;;;;;;6210028;22;20744;-78
2023/03/27 09:06:38;;;;;;;1.05;0.20;;;15.10;33.50;;;;;;6210070;23;20386;-79
2023/03/27 09:09:45;;;;;;;2.03;0.08;;;15.20;33.00;;;;;;6210565;22;20378;-78
2023/03/27 09:12:38;;;;;;;2.30;0.10;;;15.20;33.80;;;;;;6154736;22;20371;-78
2023/03/27 09:15:33;;;;;;;0.20;0.10;;;15.30;33.70;;;;;;6210324;22;20378;-78
2023/03/27 09:18:03;;;;;;;0.38;0.00;;;15.30;33.70;;;;;;6205134;22;20442;-79
2023/03/27 09:20:33;;;;;;;4.45;0.03;;;15.20;33.80;;;;;;6210380;23;20402;-79
2023/03/27 09:23:18;;;;;;;0.77;0.00;;;15.40;33.50;;;;;;6209881;22;20383;-78
2023/03/27 09:25:54;;;;;;;0.77;0.00;;;15.50;34.60;;;;;;6210073;23;20382;-78
2023/03/27 09:28:50;;;;;;;1.10;0.10;;;15.60;32.70;;;;;;6210582;22;20701;-78
2023/03/27 09:31:26;;;;;;;1.80;0.00;;;15.70;32.40;;;;;;6209365;22;20374;-79
2023/03/27 09:33:55;;;;;;;1.10;0.00;;;15.70;31.20;;;;;;6210440;23;20366;-79
2023/03/27 09:36:23;;;;;;;0.28;0.00;;;15.60;32.30;;;;;;6208922;22;20362;-80
2023/03/27 09:38:57;;;;;;;1.60;0.00;;;15.70;32.90;;;;;;6211464;22;20374;-79
2023/03/27 09:41:30;;;;;;;1.85;0.00;;;15.70;32.30;;;;;;6209317;22;20363;-80
2023/03/27 09:44:10;;;;;;;2.00;0.00;;;15.80;32.90;;;;;;6205484;23;20383;-80
2023/03/27 09:46:42;;;;;;;4.15;0.05;;;15.90;32.20;;;;;;6209863;22;20374;-79
2023/03/27 09:49:19;;;;;;;0.60;0.00;;;16.00;31.60;;;;;;6210285;23;20401;-79
2023/03/27 09:51:54;;;;;;;0.10;0.00;;;16.10;32.40;;;;;;6209300;22;20445;-79
2023/03/27 09:54:30;;;;;;;4.47;0.00;;;16.20;30.90;;;;;;6210018;23;20425;-79
2023/03/27 09:57:10;;;;;;;1.60;0.00;;;16.30;29.40;;;;;;6208851;22;20429;-77
2023/03/27 09:59:53;;;;;;;1.83;0.10;;;16.20;30.80;;;;;;6208801;22;20375;-78
2023/03/27 10:02:23;;;;;;;0.40;0.00;;;16.20;30.70;;;;;;6210103;22;20466;-82
2023/03/27 10:05:13;;;;;;;1.42;0.13;;;16.10;31.10;;;;;;6208203;22;20370;-78
2023/03/27 10:07:41;;;;;;;0.40;0.00;;;16.10;30.00;;;;;;6209193;22;20453;-78
2023/03/27 10:10:18;;;;;;;0.08;0.00;;;16.10;29.80;;;;;;6209808;23;20371;-77
2023/03/27 10:12:52;;;;;;;0.40;0.00;;;16.20;29.40;;;;;;6209390;22;20374;-77
2023/03/27 10:15:33;;;;;;;0.00;0.00;;;16.30;29.00;;;;;;6209686;22;20436;-80
2023/03/27 10:18:03;;;;;;;0.20;0.00;;;16.50;29.30;;;;;;6209099;23;20391;-77
2023/03/27 10:20:30;;;;;;;0.30;0.00;;;16.50;29.30;;;;;;6209915;23;20378;-79
2023/03/27 10:23:05;;;;;;;0.08;0.00;;;16.60;28.70;;;;;;6208800;22;20425;-78
2023/03/27 10:25:36;;;;;;;0.70;0.00;;;16.70;28.00;;;;;;6210195;22;20910;-78
2023/03/27 10:28:18;;;;;;;0.60;0.00;;;16.70;29.00;;;;;;6209152;22;20390;-78
2023/03/27 10:30:55;;;;;;;0.10;0.00;;;16.70;28.60;;;;;;6209112;22;20432;-79
2023/03/27 10:33:35;;;;;;;1.85;0.20;;;16.80;29.00;;;;;;6209232;23;20383;-80
2023/03/27 10:36:04;;;;;;;0.93;0.00;;;16.90;28.10;;;;;;6209220;22;20366;-79
2023/03/27 10:38:33;;;;;;;1.45;0.00;;;17.00;27.70;;;;;;6209618;23;20410;-78
2023/03/27 10:41:07;;;;;;;0.65;0.08;;;17.00;27.70;;;;;;6208946;22;20427;-80
2023/03/27 10:43:41;;;;;;;0.10;0.00;;;17.10;27.70;;;;;;6210308;23;20429;-78
2023/03/27 10:46:18;;;;;;;0.32;0.00;;;17.10;27.90;;;;;;6210927;22;20725;-79
2023/03/27 10:49:03;;;;;;;0.32;0.00;;;17.30;27.90;;;;;;6209888;22;20371;-79
2023/03/27 10:52:11;;;;;;;0.00;0.00;;;17.50;26.50;;;;;;6211628;23;20476;-78
2023/03/27 10:54:41;;;;;;;0.70;0.00;;;17.50;26.50;;;;;;6211495;22;20398;-79
2023/03/27 10:57:16;;;;;;;0.00;0.00;;;17.50;26.10;;;;;;6210901;23;20371;-78
2023/03/27 10:59:51;;;;;;;0.00;0.00;;;17.70;25.40;;;;;;6211731;22;20383;-79
2023/03/27 11:02:18;;;;;;;0.05;0.00;;;17.90;24.60;;;;;;6211340;23;20378;-79
2023/03/27 11:04:53;;;;;;;0.00;0.00;;;17.90;24.60;;;;;;6210907;22;20378;-79
2023/03/27 11:07:59;;;;;;;0.50;0.00;;;18.00;24.50;;;;;;6210997;22;20390;-80
2023/03/27 11:10:30;;;;;;;0.95;0.00;;;18.10;24.80;;;;;;6167120;22;20371;-79
2023/03/27 11:13:08;;;;;;;1.70;0.00;;;18.10;23.60;;;;;;6211617;23;20705;-79
2023/03/27 11:15:43;;;;;;;0.45;0.03;;;18.10;23.40;;;;;;6210125;22;20375;-79
2023/03/27 11:18:21;;;;;;;2.00;0.20;;;18.20;22.90;;;;;;6211213;23;20390;-79
2023/03/27 11:20:55;;;;;;;0.15;0.00;;;18.20;23.50;;;;;;6210795;22;20410;-79
2023/03/27 11:23:47;;;;;;;1.55;0.10;;;18.20;24.30;;;;;;6210915;22;20375;-79
2023/03/27 11:26:15;;;;;;;1.08;0.10;;;18.30;22.20;;;;;;6210715;22;20363;-78
2023/03/27 11:28:56;;;;;;;0.57;0.00;;;18.40;22.30;;;;;;6211601;23;20359;-78
2023/03/27 11:31:48;;;;;;;1.02;0.05;;;18.30;22.20;;;;;;6210870;22;20426;-77
2023/03/27 11:34:32;;;;;;;0.75;0.00;;;18.40;22.20;;;;;;6210178;22;20746;-78
2023/03/27 11:37:04;;;;;;;1.80;0.00;;;18.30;22.90;;;;;;6210828;22;20399;-79
2023/03/27 11:39:52;;;;;;;2.42;0.00;;;18.30;21.90;;;;;;6210965;23;20776;-78
2023/03/27 11:42:21;;;;;;;5.20;0.63;;;18.20;22.30;;;;;;6210563;22;20397;-79
2023/03/27 11:44:49;;;;;;;2.97;0.13;;;18.30;22.30;;;;;;6210587;23;20379;-79
2023/03/27 11:47:50;;;;;;;4.72;0.20;;;18.30;23.20;;;;;;6210089;22;20382;-79
2023/03/27 11:50:40;;;;;;;1.35;0.10;;;18.40;22.60;;;;;;6202979;22;20370;-79
2023/03/27 11:53:31;;;;;;;0.20;0.00;;;18.30;22.90;;;;;;6210543;22;20678;-78
2023/03/27 11:56:09;;;;;;;3.28;0.10;;;18.50;23.10;;;;;;6211577;23;20375;-78
2023/03/27 11:58:57;;;;;;;5.90;0.30;;;18.40;23.70;;;;;;6210215;23;20514;-77
2023/03/27 12:01:29;;;;;;;10.87;0.30;;;18.30;23.80;;;;;;6210360;22;20486;-79
2023/03/27 12:04:14;;;;;;;5.55;0.20;;;18.40;23.40;;;;;;6211023;23;20382;-79
2023/03/27 12:06:57;;;;;;;1.57;0.10;;;18.30;24.00;;;;;;6210306;22;20700;-79
2023/03/27 12:09:59;;;;;;;1.35;0.00;;;18.40;24.00;;;;;;6210149;22;20725;-79
2023/03/27 12:12:46;;;;;;;2.97;0.10;;;18.40;23.60;;;;;;6210027;22;20706;-79
2023/03/27 12:15:20;;;;;;;0.93;0.00;;;18.30;23.00;;;;;;6211258;22;20386;-79
2023/03/27 12:18:02;;;;;;;3.83;0.15;;;18.30;23.30;;;;;;6211855;22;20903;-79
2023/03/27 12:21:05;;;;;;;1.67;0.00;;;18.40;24.10;;;;;;6209747;22;20425;-79
2023/03/27 12:23:36;;;;;;;0.57;0.00;;;18.70;24.50;;;;;;6210048;22;20394;-79
2023/03/27 12:26:32;;;;;;;5.40;0.40;;;18.70;24.10;;;;;;6211201;23;20371;-79
2023/03/27 12:28:59;;;;;;;1.10;0.00;;;18.70;23.70;;;;;;6209704;23;20417;-80
2023/03/27 12:31:44;;;;;;;1.00;0.00;;;18.70;23.70;;;;;;6210650;23;20374;-79
2023/03/27 12:34:37;;;;;;;0.20;0.00;;;18.60;23.30;;;;;;6210715;22;20736;-79
2023/03/27 12:37:08;;;;;;;1.03;0.20;;;18.70;23.50;;;;;;6210219;22;20929;-80
2023/03/27 12:39:47;;;;;;;1.65;0.00;;;18.70;23.10;;;;;;6210162;23;20410;-78
2023/03/27 12:42:34;;;;;;;0.50;0.00;;;18.70;23.00;;;;;;6210092;23;20398;-79
2023/03/27 12:45:25;;;;;;;0.00;0.00;;;18.70;22.80;;;;;;6209917;22;20383;-81
2023/03/27 12:48:10;;;;;;;0.60;0.00;;;18.80;22.80;;;;;;6210459;22;20382;-79
2023/03/27 12:50:45;;;;;;;0.50;0.00;;;18.90;22.50;;;;;;6210223;22;20374;-80
2023/03/27 12:53:25;;;;;;;2.65;0.20;;;18.90;22.30;;;;;;6208810;22;20370;-79
2023/03/27 12:56:23;;;;;;;2.20;0.10;;;18.90;22.10;;;;;;6211465;22;20378;-80
2023/03/27 12:58:53;;;;;;;1.70;0.00;;;18.90;21.20;;;;;;6210660;23;20394;-79
2023/03/27 13:01:51;;;;;;;2.53;0.20;;;18.80;22.00;;;;;;6210843;22;20367;-80
2023/03/27 13:04:49;;;;;;;2.33;0.20;;;18.90;21.40;;;;;;6209182;22;20386;-81
2023/03/27 13:07:56;;;;;;;0.32;0.08;;;18.90;21.30;;;;;;6209832;22;20363;-79
2023/03/27 13:10:48;;;;;;;0.63;0.08;;;19.00;21.10;;;;;;6129877;23;20397;-80
2023/03/27 13:13:25;;;;;;;1.45;0.00;;;19.10;21.30;;;;;;6210173;22;20402;-79
2023/03/27 13:16:11;;;;;;;0.13;0.00;;;19.10;21.90;;;;;;6209968;22;20367;-78
2023/03/27 13:18:57;;;;;;;1.00;0.10;;;19.10;20.70;;;;;;6210768;22;21224;-78
2023/03/27 13:21:36;;;;;;;0.50;0.00;;;19.10;20.90;;;;;;6211450;22;20466;-78
2023/03/27 13:24:20;;;;;;;0.20;0.00;;;19.00;20.60;;;;;;6210097;23;20832;-79
2023/03/27 13:27:05;;;;;;;2.28;0.00;;;19.00;20.70;;;;;;6208932;23;20382;-79